createdAt,value
2018-01-24T00:01:23.016Z,-2.70
2018-01-24T00:03:51.681Z,-2.70
2018-01-24T00:06:20.338Z,-2.70
2018-01-24T00:08:49.020Z,-2.70
2018-01-24T00:11:17.656Z,-2.70
2018-01-24T00:13:46.312Z,-2.70
2018-01-24T00:16:15.752Z,-2.70
2018-01-24T00:18:44.409Z,-2.70
2018-01-24T00:21:13.821Z,-2.80
2018-01-24T00:23:42.526Z,-2.80
2018-01-24T00:26:11.934Z,-2.80
2018-01-24T00:28:40.576Z,-2.80
2018-01-24T00:31:10.021Z,-2.80
2018-01-24T00:33:38.669Z,-2.80
2018-01-24T00:36:08.081Z,-2.70
2018-01-24T00:38:37.634Z,-2.70
2018-01-24T00:41:06.538Z,-2.70
2018-01-24T00:43:35.237Z,-2.80
2018-01-24T00:46:03.942Z,-2.80
2018-01-24T00:48:33.357Z,-2.80
2018-01-24T00:51:02.773Z,-2.70
2018-01-24T00:53:31.495Z,-2.70
2018-01-24T00:56:00.189Z,-2.70
2018-01-24T00:58:28.860Z,-2.70
2018-01-24T01:00:57.606Z,-2.70
2018-01-24T01:03:27.129Z,-2.80
2018-01-24T01:05:55.798Z,-2.90
2018-01-24T01:08:25.242Z,-2.90
2018-01-24T01:10:53.552Z,-2.90
2018-01-24T01:13:22.205Z,-2.90
2018-01-24T01:15:50.893Z,-2.90
2018-01-24T01:18:19.537Z,-2.70
2018-01-24T01:20:48.188Z,-2.80
2018-01-24T01:23:16.893Z,-2.80
2018-01-24T01:25:45.596Z,-2.80
2018-01-24T01:28:15.077Z,-2.90
2018-01-24T01:30:43.733Z,-2.90
2018-01-24T01:33:12.457Z,-3.00
2018-01-24T01:35:41.138Z,-3.00
2018-01-24T01:38:09.818Z,-3.00
2018-01-24T01:40:38.509Z,-3.00
2018-01-24T01:43:07.264Z,-2.90
2018-01-24T01:45:35.922Z,-2.90
2018-01-24T01:48:05.353Z,-2.90
2018-01-24T01:50:33.818Z,-2.90
2018-01-24T01:53:02.288Z,-3.00
2018-01-24T01:55:31.706Z,-3.00
2018-01-24T01:58:00.637Z,-3.00
2018-01-24T02:00:29.104Z,-3.00
2018-01-24T02:02:57.943Z,-3.00
2018-01-24T02:05:26.706Z,-3.00
2018-01-24T02:07:55.206Z,-3.10
2018-01-24T02:10:23.865Z,-3.10
2018-01-24T02:12:52.701Z,-3.10
2018-01-24T02:15:21.348Z,-3.10
2018-01-24T02:17:50.005Z,-3.00
2018-01-24T02:20:18.677Z,-2.90
2018-01-24T02:22:47.324Z,-2.80
2018-01-24T02:25:15.789Z,-2.80
2018-01-24T02:27:44.114Z,-2.80
2018-01-24T02:30:13.208Z,-2.60
2018-01-24T02:32:42.613Z,-2.70
2018-01-24T02:35:12.391Z,-2.80
2018-01-24T02:37:40.883Z,-2.90
2018-01-24T02:40:09.548Z,-2.90
2018-01-24T02:42:38.242Z,-3.00
2018-01-24T02:45:06.960Z,-3.00
2018-01-24T02:47:36.370Z,-2.80
2018-01-24T02:50:05.816Z,-2.80
2018-01-24T02:52:34.692Z,-2.80
2018-01-24T02:55:03.328Z,-2.70
2018-01-24T02:57:32.006Z,-2.80
2018-01-24T03:00:00.654Z,-2.80
2018-01-24T03:02:29.346Z,-2.90
2018-01-24T03:04:58.048Z,-2.90
2018-01-24T03:07:26.745Z,-2.90
2018-01-24T03:09:55.432Z,-2.80
2018-01-24T03:12:24.089Z,-2.80
2018-01-24T03:14:52.757Z,-2.90
2018-01-24T03:17:22.157Z,-3.00
2018-01-24T03:19:50.845Z,-3.00
2018-01-24T03:22:19.539Z,-3.00
2018-01-24T03:24:48.185Z,-3.10
2018-01-24T03:27:16.832Z,-3.10
2018-01-24T03:29:45.476Z,-3.10
2018-01-24T03:32:14.901Z,-3.00
2018-01-24T03:34:43.536Z,-3.00
2018-01-24T03:37:12.208Z,-2.80
2018-01-24T03:39:40.841Z,-2.70
2018-01-24T03:42:10.253Z,-2.70
2018-01-24T03:44:38.933Z,-2.70
2018-01-24T03:47:07.586Z,-2.70
2018-01-24T03:49:36.257Z,-2.60
2018-01-24T03:52:04.970Z,-2.50
2018-01-24T03:54:33.638Z,-2.30
2018-01-24T03:57:02.339Z,-2.30
2018-01-24T03:59:31.029Z,-2.20
2018-01-24T04:01:59.697Z,-2.00
2018-01-24T04:04:28.376Z,-2.10
2018-01-24T04:06:57.037Z,-2.10
2018-01-24T04:09:25.685Z,-2.10
2018-01-24T04:11:54.410Z,-2.20
2018-01-24T04:14:23.265Z,-2.20
2018-01-24T04:16:52.402Z,-2.30
2018-01-24T04:19:21.101Z,-2.30
2018-01-24T04:21:49.748Z,-2.40
2018-01-24T04:24:19.189Z,-2.20
2018-01-24T04:26:47.844Z,-2.20
2018-01-24T04:29:16.485Z,-2.20
2018-01-24T04:31:45.160Z,-2.30
2018-01-24T04:34:13.826Z,-2.40
2018-01-24T04:36:42.467Z,-2.40
2018-01-24T04:39:11.144Z,-2.50
2018-01-24T04:41:39.784Z,-2.60
2018-01-24T04:44:08.440Z,-2.60
2018-01-24T04:46:37.885Z,-2.50
2018-01-24T04:49:06.529Z,-2.60
2018-01-24T04:51:35.760Z,-2.50
2018-01-24T04:54:04.449Z,-2.50
2018-01-24T04:56:33.117Z,-2.40
2018-01-24T04:59:01.609Z,-2.40
2018-01-24T05:01:29.770Z,-2.50
2018-01-24T05:03:58.232Z,-2.40
2018-01-24T05:06:27.653Z,-2.30
2018-01-24T05:08:56.373Z,-2.30
2018-01-24T05:11:24.833Z,-2.20
2018-01-24T05:13:53.301Z,-2.30
2018-01-24T05:16:22.563Z,-2.40
2018-01-24T05:18:51.240Z,-2.40
2018-01-24T05:21:19.721Z,-2.40
2018-01-24T05:23:48.405Z,-2.50
2018-01-24T05:26:17.061Z,-2.60
2018-01-24T05:28:45.715Z,-2.60
2018-01-24T05:31:15.161Z,-2.20
2018-01-24T05:33:43.822Z,-2.20
2018-01-24T05:36:12.472Z,-2.10
2018-01-24T05:38:41.144Z,-2.20
2018-01-24T05:41:09.804Z,-2.40
2018-01-24T05:43:38.450Z,-2.50
2018-01-24T05:46:07.896Z,-2.10
2018-01-24T05:48:36.559Z,-2.10
2018-01-24T05:51:05.208Z,-2.10
2018-01-24T05:53:33.890Z,-2.20
2018-01-24T05:56:02.541Z,-2.10
2018-01-24T05:58:31.245Z,-2.20
2018-01-24T06:01:00.033Z,-2.20
2018-01-24T06:03:28.708Z,-2.20
2018-01-24T06:05:57.393Z,-1.80
2018-01-24T06:08:26.044Z,-1.80
2018-01-24T06:10:55.461Z,-2.00
2018-01-24T06:13:24.145Z,-2.00
2018-01-24T06:15:52.809Z,-1.90
2018-01-24T06:18:21.521Z,-1.90
2018-01-24T06:20:50.334Z,-1.70
2018-01-24T06:23:19.760Z,-1.50
2018-01-24T06:25:48.416Z,-1.50
2018-01-24T06:28:17.133Z,-1.60
2018-01-24T06:30:45.797Z,-1.70
2018-01-24T06:33:14.542Z,-1.60
2018-01-24T06:35:43.905Z,-1.50
2018-01-24T06:38:12.601Z,-1.50
2018-01-24T06:40:41.315Z,-1.10
2018-01-24T06:43:10.737Z,-0.80
2018-01-24T06:45:40.420Z,-0.40
2018-01-24T06:48:09.084Z,-0.40
2018-01-24T06:50:37.749Z,-0.30
2018-01-24T06:53:06.469Z,-0.20
2018-01-24T06:55:34.796Z,-0.10
2018-01-24T07:00:40.237Z,0.20
2018-01-24T07:03:09.657Z,0.40
2018-01-24T07:05:38.326Z,0.30
2018-01-24T07:08:07.187Z,0.40
2018-01-24T07:10:35.873Z,0.40
2018-01-24T07:13:15.787Z,0.50
2018-01-24T07:15:44.436Z,0.60
2018-01-24T07:18:13.909Z,0.70
2018-01-24T07:20:42.574Z,0.70
2018-01-24T07:23:11.229Z,0.70
2018-01-24T07:25:40.723Z,1.00
2018-01-24T07:28:10.199Z,1.10
2018-01-24T07:30:38.899Z,1.10
2018-01-24T07:33:07.817Z,1.20
2018-01-24T07:35:36.394Z,1.40
2018-01-24T07:38:05.746Z,1.50
2018-01-24T07:40:34.448Z,1.50
2018-01-24T07:43:03.146Z,1.60
2018-01-24T07:45:31.826Z,1.60
2018-01-24T07:48:00.535Z,1.60
2018-01-24T07:50:29.245Z,1.70
2018-01-24T07:52:58.430Z,1.60
2018-01-24T07:55:27.120Z,1.60
2018-01-24T07:57:55.842Z,1.60
2018-01-24T08:00:24.552Z,1.90
2018-01-24T08:02:53.260Z,2.00
2018-01-24T08:05:21.976Z,2.20
2018-01-24T08:07:50.697Z,2.40
2018-01-24T08:10:19.245Z,2.60
2018-01-24T08:12:48.713Z,3.10
2018-01-24T08:15:17.420Z,3.10
2018-01-24T08:17:46.103Z,3.40
2018-01-24T08:20:14.812Z,3.60
2018-01-24T08:22:43.523Z,3.80
2018-01-24T08:25:12.456Z,4.00
2018-01-24T08:27:41.149Z,4.10
2018-01-24T08:30:09.856Z,4.20
2018-01-24T08:32:39.353Z,4.50
2018-01-24T08:35:08.065Z,4.50
2018-01-24T08:37:36.765Z,4.50
2018-01-24T08:40:05.463Z,4.70
2018-01-24T08:42:34.167Z,5.00
2018-01-24T08:45:02.892Z,5.00
2018-01-24T08:47:31.613Z,5.10
2018-01-24T08:50:00.344Z,5.50
2018-01-24T08:52:29.062Z,5.70
2018-01-24T08:54:58.556Z,5.00
2018-01-24T08:57:27.292Z,5.00
2018-01-24T08:59:56.059Z,6.40
2018-01-24T09:02:24.775Z,8.10
2018-01-24T09:04:53.196Z,9.40
2018-01-24T09:07:25.156Z,12.90
2018-01-24T09:09:53.601Z,12.80
2018-01-24T09:12:22.019Z,15.00
2018-01-24T09:14:50.677Z,16.80
2018-01-24T09:17:19.116Z,17.50
2018-01-24T09:19:47.557Z,18.00
2018-01-24T09:22:16.775Z,19.30
2018-01-24T09:24:45.208Z,19.30
2018-01-24T09:27:13.636Z,19.30
2018-01-24T09:29:42.116Z,19.20
2018-01-24T09:32:10.553Z,20.80
2018-01-24T09:34:38.963Z,20.10
2018-01-24T09:37:08.191Z,18.40
2018-01-24T09:39:36.640Z,18.30
2018-01-24T09:42:05.858Z,20.00
2018-01-24T09:44:34.321Z,20.00
2018-01-24T09:47:03.516Z,19.80
2018-01-24T09:49:32.701Z,20.10
2018-01-24T09:52:01.143Z,20.10
2018-01-24T09:54:29.607Z,20.70
2018-01-24T09:56:58.924Z,21.20
2018-01-24T09:59:27.383Z,21.80
2018-01-24T10:01:55.800Z,22.20
2018-01-24T10:04:24.240Z,22.70
2018-01-24T10:06:52.712Z,22.60
2018-01-24T10:09:21.903Z,22.40
2018-01-24T10:11:51.116Z,21.90
2018-01-24T10:14:20.320Z,21.50
2018-01-24T10:16:48.732Z,21.50
2018-01-24T10:19:17.169Z,22.50
2018-01-24T10:21:45.808Z,22.50
2018-01-24T10:24:14.237Z,22.80
2018-01-24T10:26:43.473Z,23.10
2018-01-24T10:29:11.904Z,23.10
2018-01-24T10:31:41.109Z,23.20
2018-01-24T10:34:09.585Z,23.20
2018-01-24T10:36:38.788Z,24.50
2018-01-24T10:39:08.003Z,23.30
2018-01-24T10:41:36.467Z,23.30
2018-01-24T10:44:04.888Z,23.10
2018-01-24T10:46:33.319Z,23.10
2018-01-24T10:49:01.768Z,23.10
2018-01-24T10:51:30.247Z,23.10
2018-01-24T10:53:58.709Z,23.60
2018-01-24T10:56:27.330Z,22.80
2018-01-24T10:58:55.796Z,22.30
2018-01-24T11:01:24.225Z,21.90
2018-01-24T11:03:53.550Z,21.40
2018-01-24T11:06:22.742Z,20.60
2018-01-24T11:08:51.164Z,20.60
2018-01-24T11:11:19.579Z,20.00
2018-01-24T11:13:48.003Z,19.30
2018-01-24T11:16:16.424Z,19.20
2018-01-24T11:18:44.837Z,18.50
2018-01-24T11:21:13.269Z,17.60
2018-01-24T11:23:41.683Z,18.00
2018-01-24T11:26:10.121Z,19.00
2018-01-24T11:28:38.570Z,19.70
2018-01-24T11:31:06.991Z,19.40
2018-01-24T11:33:35.403Z,18.40
2018-01-24T11:36:03.855Z,17.90
2018-01-24T11:38:32.266Z,17.10
2018-01-24T11:41:01.449Z,15.30
2018-01-24T11:43:29.884Z,15.30
2018-01-24T11:45:58.426Z,15.30
2018-01-24T11:48:26.909Z,14.80
2018-01-24T11:50:55.030Z,14.50
2018-01-24T11:53:23.401Z,14.10
2018-01-24T11:55:51.790Z,13.60
2018-01-24T11:58:20.244Z,13.70
2018-01-24T12:00:48.641Z,14.20
2018-01-24T12:03:17.040Z,14.30
2018-01-24T12:05:45.447Z,14.80
2018-01-24T12:08:13.859Z,14.70
2018-01-24T12:10:43.029Z,15.60
2018-01-24T12:13:11.462Z,15.60
2018-01-24T12:15:39.860Z,16.10
2018-01-24T12:18:07.932Z,15.50
2018-01-24T12:20:36.371Z,15.40
2018-01-24T12:23:05.542Z,14.50
2018-01-24T12:25:33.960Z,14.40
2018-01-24T12:28:03.165Z,14.00
2018-01-24T12:30:32.317Z,14.30
2018-01-24T12:33:00.815Z,14.30
2018-01-24T12:35:29.224Z,13.90
2018-01-24T12:37:58.386Z,13.70
2018-01-24T12:40:26.793Z,13.70
2018-01-24T12:42:55.997Z,15.00
2018-01-24T12:45:25.181Z,15.00
2018-01-24T12:47:54.370Z,15.40
2018-01-24T12:50:22.781Z,15.40
2018-01-24T12:52:51.968Z,16.90
2018-01-24T12:55:21.177Z,16.90
2018-01-24T12:57:50.336Z,17.70
2018-01-24T13:00:18.744Z,17.60
2018-01-24T13:02:47.947Z,19.30
2018-01-24T13:05:17.136Z,19.80
2018-01-24T13:07:46.313Z,20.30
2018-01-24T13:10:14.758Z,20.30
2018-01-24T13:12:43.150Z,20.20
2018-01-24T13:15:11.565Z,20.30
2018-01-24T13:17:40.009Z,20.50
2018-01-24T13:20:08.087Z,20.50
2018-01-24T13:22:37.271Z,20.70
2018-01-24T13:25:05.726Z,20.70
2018-01-24T13:27:34.131Z,20.80
2018-01-24T13:30:02.530Z,20.20
2018-01-24T13:32:30.995Z,20.50
2018-01-24T13:34:59.271Z,20.70
2018-01-24T13:37:27.674Z,20.00
2018-01-24T13:39:56.111Z,20.20
2018-01-24T13:42:24.507Z,19.30
2018-01-24T13:44:52.919Z,18.40
2018-01-24T13:47:21.369Z,18.10
2018-01-24T13:49:49.786Z,17.70
2018-01-24T13:52:18.238Z,16.80
2018-01-24T13:54:47.626Z,16.10
2018-01-24T13:57:15.513Z,16.00
2018-01-24T13:59:43.901Z,15.20
2018-01-24T14:02:12.335Z,15.40
2018-01-24T14:04:41.510Z,14.90
2018-01-24T14:07:09.917Z,14.80
2018-01-24T14:09:39.153Z,13.50
2018-01-24T14:12:07.552Z,13.50
2018-01-24T14:14:35.761Z,13.10
2018-01-24T14:17:04.952Z,12.40
2018-01-24T14:19:33.356Z,12.40
2018-01-24T14:22:01.751Z,12.10
2018-01-24T14:24:30.342Z,11.70
2018-01-24T14:26:58.703Z,11.50
2018-01-24T14:29:27.098Z,11.00
2018-01-24T14:31:55.497Z,10.70
2018-01-24T14:34:23.909Z,10.30
2018-01-24T14:36:52.292Z,10.30
2018-01-24T14:39:20.689Z,9.80
2018-01-24T14:41:49.872Z,8.80
2018-01-24T14:44:18.261Z,8.70
2018-01-24T14:46:47.439Z,8.20
2018-01-24T14:49:15.900Z,8.20
2018-01-24T14:51:44.289Z,7.90
2018-01-24T14:54:12.676Z,7.60
2018-01-24T14:56:41.170Z,7.40
2018-01-24T14:59:09.844Z,7.20
2018-01-24T15:01:38.534Z,6.90
2018-01-24T15:04:07.199Z,6.70
2018-01-24T15:06:36.868Z,6.20
2018-01-24T15:09:04.937Z,6.20
2018-01-24T15:11:33.639Z,6.00
2018-01-24T15:14:02.304Z,5.70
2018-01-24T15:16:31.003Z,5.40
2018-01-24T15:18:59.917Z,5.20
2018-01-24T15:21:29.358Z,4.90
2018-01-24T15:23:58.089Z,4.80
2018-01-24T15:26:26.793Z,4.70
2018-01-24T15:28:55.605Z,4.50
2018-01-24T15:31:24.320Z,4.40
2018-01-24T15:33:52.974Z,4.20
2018-01-24T15:36:23.156Z,3.90
2018-01-24T15:38:51.567Z,3.90
2018-01-24T15:41:21.041Z,3.70
2018-01-24T15:43:49.737Z,3.70
2018-01-24T15:46:18.436Z,3.60
2018-01-24T15:48:46.927Z,3.50
2018-01-24T15:51:15.724Z,3.30
2018-01-24T15:53:45.149Z,3.10
2018-01-24T15:56:13.792Z,3.10
2018-01-24T15:58:42.460Z,3.00
2018-01-24T16:01:11.105Z,2.80
2018-01-24T16:03:39.767Z,2.70
2018-01-24T16:06:09.251Z,2.40
2018-01-24T16:08:37.581Z,2.40
2018-01-24T16:11:06.061Z,2.40
2018-01-24T16:13:34.720Z,2.30
2018-01-24T16:16:03.369Z,2.30
2018-01-24T16:18:32.061Z,2.20
2018-01-24T16:21:00.385Z,2.10
2018-01-24T16:23:29.149Z,2.00
2018-01-24T16:25:57.830Z,1.90
2018-01-24T16:28:26.500Z,1.90
2018-01-24T16:30:55.181Z,1.70
2018-01-24T16:33:23.914Z,1.70
2018-01-24T16:35:53.151Z,1.60
2018-01-24T16:38:21.805Z,1.50
2018-01-24T16:40:51.280Z,1.40
2018-01-24T16:43:19.948Z,1.40
2018-01-24T16:45:48.636Z,1.40
2018-01-24T16:48:17.305Z,1.40
2018-01-24T16:50:45.996Z,1.30
2018-01-24T16:53:14.652Z,1.20
2018-01-24T16:55:43.324Z,1.20
2018-01-24T16:58:12.790Z,1.00
2018-01-24T17:00:41.452Z,1.00
2018-01-24T17:03:10.099Z,1.00
2018-01-24T17:05:39.552Z,0.80
2018-01-24T17:08:08.208Z,0.80
2018-01-24T17:10:36.900Z,0.80
2018-01-24T17:13:05.545Z,0.80
2018-01-24T17:15:33.878Z,0.70
2018-01-24T17:18:02.562Z,0.60
2018-01-24T17:20:31.352Z,0.60
2018-01-24T17:23:00.003Z,0.60
2018-01-24T17:25:29.429Z,0.60
2018-01-24T17:27:58.088Z,0.50
2018-01-24T17:30:27.505Z,0.40
2018-01-24T17:32:56.960Z,0.30
2018-01-24T17:35:25.604Z,0.30
2018-01-24T17:37:54.259Z,0.20
2018-01-24T17:40:22.942Z,0.20
2018-01-24T17:42:51.261Z,0.20
2018-01-24T17:45:19.912Z,0.10
2018-01-24T17:47:48.597Z,0.10
2018-01-24T17:50:17.260Z,0.10
2018-01-24T17:52:45.909Z,0.00
2018-01-24T17:55:14.593Z,0.00
2018-01-24T17:57:43.253Z,-0.10
2018-01-24T18:00:12.679Z,-0.10
2018-01-24T18:02:42.132Z,-0.20
2018-01-24T18:05:10.997Z,-0.20
2018-01-24T18:07:39.657Z,-0.20
2018-01-24T18:10:09.121Z,-0.20
2018-01-24T18:12:37.777Z,-0.20
2018-01-24T18:15:06.161Z,-0.20
2018-01-24T18:17:35.164Z,-0.20
2018-01-24T18:20:03.821Z,-0.20
2018-01-24T18:22:32.482Z,-0.20
2018-01-24T18:25:01.934Z,-0.40
2018-01-24T18:27:33.494Z,-0.40
2018-01-24T18:30:02.238Z,-0.30
2018-01-24T18:32:30.936Z,-0.30
2018-01-24T18:34:59.592Z,-0.40
2018-01-24T18:37:28.258Z,-0.40
2018-01-24T18:39:56.920Z,-0.50
2018-01-24T18:42:25.609Z,-0.60
2018-01-24T18:44:54.260Z,-0.60
2018-01-24T18:47:23.676Z,-0.60
2018-01-24T18:49:52.400Z,-0.70
2018-01-24T18:52:21.070Z,-0.60
2018-01-24T18:54:49.732Z,-0.70
2018-01-24T18:57:18.412Z,-0.70
2018-01-24T18:59:47.832Z,-0.80
2018-01-24T19:02:16.491Z,-0.80
2018-01-24T19:04:45.924Z,-0.80
2018-01-24T19:07:14.628Z,-0.90
2018-01-24T19:09:43.286Z,-0.90
2018-01-24T19:12:11.999Z,-0.90
2018-01-24T19:14:40.711Z,-0.90
2018-01-24T19:17:09.367Z,-1.00
2018-01-24T19:19:39.292Z,-1.00
2018-01-24T19:22:07.986Z,-1.00
2018-01-24T19:24:36.660Z,-0.80
2018-01-24T19:27:05.322Z,-0.90
2018-01-24T19:29:34.918Z,-1.00
2018-01-24T19:32:04.333Z,-1.10
2018-01-24T19:34:32.994Z,-1.20
2018-01-24T19:37:01.744Z,-1.10
2018-01-24T19:39:30.428Z,-1.20
2018-01-24T19:41:59.100Z,-1.20
2018-01-24T19:44:27.773Z,-1.10
2018-01-24T19:46:56.489Z,-1.10
2018-01-24T19:49:25.253Z,-1.10
2018-01-24T19:51:53.968Z,-1.10
2018-01-24T19:54:29.654Z,-1.10
2018-01-24T19:56:58.329Z,-1.10
2018-01-24T19:59:26.990Z,-1.10
2018-01-24T20:01:55.690Z,-1.10
2018-01-24T20:04:24.374Z,-1.10
2018-01-24T20:06:53.082Z,-1.20
2018-01-24T20:09:21.774Z,-1.20
2018-01-24T20:11:50.428Z,-1.20
2018-01-24T20:14:19.200Z,-1.30
2018-01-24T20:16:50.317Z,-1.40
2018-01-24T20:19:19.853Z,-1.30
2018-01-24T20:21:48.533Z,-1.40
2018-01-24T20:24:17.191Z,-1.30
2018-01-24T20:26:45.865Z,-1.30
2018-01-24T20:29:14.526Z,-1.30
2018-01-24T20:31:43.253Z,-1.30
2018-01-24T20:34:12.737Z,-1.30
2018-01-24T20:36:41.384Z,-1.30
2018-01-24T20:39:10.041Z,-1.30
2018-01-24T20:41:39.471Z,-1.40
2018-01-24T20:44:08.132Z,-1.40
2018-01-24T20:46:36.803Z,-1.30
2018-01-24T20:49:05.488Z,-1.30
2018-01-24T20:51:34.146Z,-1.20
2018-01-24T20:54:02.801Z,-1.30
2018-01-24T20:56:31.485Z,-1.30
2018-01-24T20:59:00.126Z,-1.40
2018-01-24T21:01:28.772Z,-1.40
2018-01-24T21:03:57.456Z,-1.50
2018-01-24T21:06:26.112Z,-1.60
2018-01-24T21:08:55.529Z,-1.40
2018-01-24T21:11:24.189Z,-1.50
2018-01-24T21:13:53.646Z,-1.50
2018-01-24T21:16:22.334Z,-1.50
2018-01-24T21:18:50.980Z,-1.60
2018-01-24T21:21:19.630Z,-1.60
2018-01-24T21:23:48.345Z,-1.70
2018-01-24T21:26:17.757Z,-1.80
2018-01-24T21:28:53.978Z,-1.80
2018-01-24T21:34:50.945Z,-1.80
2018-01-24T21:37:19.613Z,-1.80
2018-01-24T21:39:48.285Z,-1.80
2018-01-24T21:42:17.011Z,-1.80
2018-01-24T21:44:45.870Z,-1.80
2018-01-24T21:47:14.600Z,-1.80
2018-01-24T21:49:43.318Z,-1.70
2018-01-24T21:52:12.013Z,-1.80
2018-01-24T21:54:40.702Z,-1.80
2018-01-24T21:57:09.409Z,-1.80
2018-01-24T21:59:38.106Z,-1.80
2018-01-24T22:02:06.790Z,-1.80
2018-01-24T22:04:35.512Z,-1.80
2018-01-24T22:07:03.853Z,-1.80
2018-01-24T22:09:32.509Z,-1.80
2018-01-24T22:12:02.117Z,-1.90
2018-01-24T22:14:31.617Z,-1.90
2018-01-24T22:17:00.361Z,-2.00
2018-01-24T22:19:29.059Z,-2.00
2018-01-24T22:21:57.747Z,-2.00
2018-01-24T22:24:26.461Z,-2.00
2018-01-24T22:26:55.921Z,-1.90
2018-01-24T22:29:24.622Z,-2.00
2018-01-24T22:31:53.330Z,-1.90
2018-01-24T22:34:22.757Z,-2.00
2018-01-24T22:36:51.995Z,-2.00
2018-01-24T22:39:20.534Z,-2.00
2018-01-24T22:41:49.939Z,-1.90
2018-01-24T22:44:19.221Z,-1.80
2018-01-24T22:46:47.860Z,-1.90
2018-01-24T22:49:16.558Z,-1.80
2018-01-24T22:51:45.256Z,-1.80
2018-01-24T22:54:14.232Z,-1.90
2018-01-24T22:56:42.892Z,-1.90
2018-01-24T22:59:11.624Z,-1.90
2018-01-24T23:01:40.312Z,-2.00
2018-01-24T23:04:09.000Z,-2.00
2018-01-24T23:06:37.733Z,-2.00
2018-01-24T23:09:06.427Z,-2.00
2018-01-24T23:11:35.105Z,-2.00
2018-01-24T23:14:04.546Z,-2.00
2018-01-24T23:16:33.209Z,-2.10
2018-01-24T23:19:01.871Z,-2.00
2018-01-24T23:21:30.545Z,-2.00
2018-01-24T23:23:59.294Z,-2.00
2018-01-24T23:26:28.117Z,-2.10
2018-01-24T23:28:56.839Z,-2.10
2018-01-24T23:31:25.602Z,-2.10
2018-01-24T23:33:54.279Z,-2.10
2018-01-24T23:36:23.200Z,-2.00
2018-01-24T23:38:52.104Z,-2.00
2018-01-24T23:41:20.793Z,-2.10
2018-01-24T23:43:49.488Z,-2.20
2018-01-24T23:46:18.139Z,-2.20
2018-01-24T23:48:46.797Z,-2.30
2018-01-24T23:51:15.543Z,-2.30
2018-01-24T23:53:44.441Z,-2.30
2018-01-24T23:56:13.137Z,-2.30
2018-01-24T23:58:41.895Z,-2.20
